Time;durP1;ratioP1;P1;durP2;ratioP2;P2;SDS_P1;SDS_P2;PMS_P1;PMS_P2;Temp;Humidity;BMP_temperature;BMP_pressure;BME280_temperature;BME280_humidity;BME280_pressure;Samples;Min_cycle;Max_cycle;Signal;HPM_P1;HPM_P2
2022/07/31 00:02:09;;;;;;;23.88;10.57;;;;;;;;;;4936987;28;20051;-64
2022/07/31 00:04:39;;;;;;;11.82;5.63;;;;;;;;;;4963719;28;20047;-64
2022/07/31 00:07:10;;;;;;;12.32;5.20;;;;;;;;;;4994160;28;20148;-65
2022/07/31 00:09:41;;;;;;;14.00;5.50;;;;;;;;;;4971740;28;20054;-66
2022/07/31 00:12:22;;;;;;;13.98;6.63;;;;;;;;;;4972397;28;20055;-64
2022/07/31 00:14:53;;;;;;;23.80;10.27;;;;;;;;;;4972135;28;20063;-65
2022/07/31 00:17:23;;;;;;;20.25;8.82;;;;;;;;;;5003748;28;20513;-65
2022/07/31 00:19:54;;;;;;;19.15;8.20;;;;;;;;;;5023873;28;20647;-65
2022/07/31 00:22:24;;;;;;;14.38;6.32;;;;;;;;;;5030999;28;20493;-65
2022/07/31 00:24:55;;;;;;;37.28;14.00;;;;;;;;;;5030655;28;20050;-65
2022/07/31 00:27:25;;;;;;;21.48;8.70;;;;;;;;;;5030884;28;20068;-64
2022/07/31 00:29:56;;;;;;;29.40;12.27;;;;;;;;;;5050315;28;20049;-65
2022/07/31 00:32:26;;;;;;;15.68;7.28;;;;;;;;;;5030527;28;20045;-65
2022/07/31 00:34:56;;;;;;;13.18;6.35;;;;;;;;;;4990862;28;20046;-65
2022/07/31 00:37:27;;;;;;;13.15;6.45;;;;;;;;;;4978886;28;20062;-64
2022/07/31 00:39:57;;;;;;;16.45;7.13;;;;;;;;;;4948402;29;20059;-65
2022/07/31 00:42:28;;;;;;;15.63;6.88;;;;;;;;;;4951784;29;20078;-65
2022/07/31 00:44:58;;;;;;;16.50;7.03;;;;;;;;;;4932982;29;20189;-64
2022/07/31 00:47:28;;;;;;;15.48;6.93;;;;;;;;;;4896637;29;20052;-64
2022/07/31 00:49:59;;;;;;;18.95;7.50;;;;;;;;;;4895105;29;20068;-65
2022/07/31 00:52:29;;;;;;;16.98;7.13;;;;;;;;;;4879210;29;20150;-65
2022/07/31 00:55:00;;;;;;;15.20;7.68;;;;;;;;;;4895296;29;20477;-65
2022/07/31 00:57:30;;;;;;;16.70;7.20;;;;;;;;;;4894708;29;20418;-64
2022/07/31 01:00:00;;;;;;;21.30;7.45;;;;;;;;;;4864059;29;20235;-64
2022/07/31 01:02:31;;;;;;;15.30;6.90;;;;;;;;;;4876079;29;20053;-64
2022/07/31 01:05:01;;;;;;;17.15;7.07;;;;;;;;;;4876152;29;20057;-65
2022/07/31 01:07:31;;;;;;;14.30;6.78;;;;;;;;;;4875778;29;20056;-65
2022/07/31 01:10:07;;;;;;;12.90;6.75;;;;;;;;;;4903558;29;20056;-65
2022/07/31 01:12:50;;;;;;;18.63;7.28;;;;;;;;;;4879096;29;20657;-65
2022/07/31 01:15:23;;;;;;;16.15;7.78;;;;;;;;;;4894681;29;20052;-65
2022/07/31 01:17:56;;;;;;;13.68;6.70;;;;;;;;;;4883344;29;20061;-66
2022/07/31 01:20:28;;;;;;;15.60;7.63;;;;;;;;;;4882622;29;20724;-64
2022/07/31 01:23:17;;;;;;;18.02;7.18;;;;;;;;;;4902634;29;20051;-66
2022/07/31 01:26:14;;;;;;;15.80;7.47;;;;;;;;;;4895150;29;20063;-66
2022/07/31 01:29:20;;;;;;;15.02;7.85;;;;;;;;;;4894354;29;20457;-66
2022/07/31 01:32:06;;;;;;;12.70;6.82;;;;;;;;;;4926220;29;20048;-66
2022/07/31 01:34:51;;;;;;;18.98;8.77;;;;;;;;;;4932143;29;20056;-66
2022/07/31 01:37:32;;;;;;;21.67;8.00;;;;;;;;;;4900339;29;20420;-67
2022/07/31 01:40:09;;;;;;;18.02;7.72;;;;;;;;;;4901397;28;20055;-69
2022/07/31 01:42:43;;;;;;;19.48;7.95;;;;;;;;;;4955098;28;20071;-66
2022/07/31 01:45:15;;;;;;;16.83;8.00;;;;;;;;;;4931883;29;20200;-68
2022/07/31 01:47:49;;;;;;;16.88;7.90;;;;;;;;;;4931414;29;20536;-66
2022/07/31 01:50:22;;;;;;;17.02;8.57;;;;;;;;;;4950574;28;20054;-66
2022/07/31 01:53:19;;;;;;;15.93;7.40;;;;;;;;;;4950355;28;20059;-66
2022/07/31 01:55:52;;;;;;;19.00;7.97;;;;;;;;;;4950645;28;20054;-65
2022/07/31 01:58:38;;;;;;;17.48;7.68;;;;;;;;;;4937393;28;20063;-66
2022/07/31 02:01:18;;;;;;;18.65;7.82;;;;;;;;;;4891945;29;20055;-65
2022/07/31 02:03:56;;;;;;;18.90;7.00;;;;;;;;;;4931495;29;20492;-65
2022/07/31 02:06:32;;;;;;;16.25;7.05;;;;;;;;;;4931251;29;20460;-66
2022/07/31 02:09:03;;;;;;;17.13;7.47;;;;;;;;;;4918606;29;20066;-66
2022/07/31 02:11:33;;;;;;;18.58;7.57;;;;;;;;;;4931112;29;20436;-66
2022/07/31 02:14:22;;;;;;;16.90;7.43;;;;;;;;;;4908119;29;20096;-66
2022/07/31 02:16:53;;;;;;;15.05;6.90;;;;;;;;;;4877771;29;20048;-66
2022/07/31 02:19:39;;;;;;;13.95;6.68;;;;;;;;;;4874487;29;20057;-67
2022/07/31 02:22:28;;;;;;;14.50;6.88;;;;;;;;;;4868837;29;20061;-66
2022/07/31 02:25:01;;;;;;;15.30;6.97;;;;;;;;;;4850439;29;20050;-66
2022/07/31 02:27:35;;;;;;;16.35;6.63;;;;;;;;;;4850274;29;20045;-66
2022/07/31 02:30:32;;;;;;;14.40;6.93;;;;;;;;;;4837575;29;20074;-65
2022/07/31 02:33:13;;;;;;;14.73;6.47;;;;;;;;;;4836200;29;20050;-65
2022/07/31 02:35:47;;;;;;;17.17;7.13;;;;;;;;;;4879696;29;20056;-66
2022/07/31 02:38:20;;;;;;;17.33;7.35;;;;;;;;;;4870626;29;20049;-65
2022/07/31 02:40:58;;;;;;;23.40;7.40;;;;;;;;;;4862974;29;20432;-66
2022/07/31 02:43:31;;;;;;;17.73;6.72;;;;;;;;;;4859628;29;20048;-66
2022/07/31 02:46:11;;;;;;;15.10;6.28;;;;;;;;;;4869498;29;20200;-66
2022/07/31 02:48:43;;;;;;;14.45;6.93;;;;;;;;;;4861343;29;20061;-66
2022/07/31 02:51:15;;;;;;;16.08;7.20;;;;;;;;;;4874516;29;20075;-65
2022/07/31 02:53:47;;;;;;;17.17;6.88;;;;;;;;;;4893107;29;20056;-66
2022/07/31 02:56:19;;;;;;;13.75;6.32;;;;;;;;;;4930786;29;20208;-68
2022/07/31 02:58:50;;;;;;;14.43;6.50;;;;;;;;;;4931169;29;20052;-66
2022/07/31 03:01:26;;;;;;;18.35;8.18;;;;;;;;;;4930969;29;20519;-66
2022/07/31 03:03:57;;;;;;;16.67;7.88;;;;;;;;;;4912912;29;20235;-66
2022/07/31 03:06:28;;;;;;;13.30;6.68;;;;;;;;;;4896633;29;20044;-68
2022/07/31 03:08:59;;;;;;;16.45;6.65;;;;;;;;;;4915581;29;20094;-66
2022/07/31 03:11:32;;;;;;;14.15;7.05;;;;;;;;;;4904839;29;20101;-66
2022/07/31 03:14:03;;;;;;;16.45;7.68;;;;;;;;;;4879407;29;20617;-66
2022/07/31 03:16:36;;;;;;;18.42;6.93;;;;;;;;;;4915382;29;20111;-68
2022/07/31 03:19:08;;;;;;;16.02;6.97;;;;;;;;;;4915305;29;20048;-66
2022/07/31 03:21:39;;;;;;;14.63;6.90;;;;;;;;;;4889206;29;20053;-65
2022/07/31 03:24:10;;;;;;;17.00;7.25;;;;;;;;;;4903322;29;20060;-66
2022/07/31 03:26:41;;;;;;;13.85;6.70;;;;;;;;;;4914903;29;20063;-66
2022/07/31 03:29:12;;;;;;;14.05;6.60;;;;;;;;;;4880345;29;20048;-66
2022/07/31 03:32:02;;;;;;;16.98;7.15;;;;;;;;;;4910236;29;20063;-66
2022/07/31 03:34:34;;;;;;;16.80;7.45;;;;;;;;;;4870274;29;20061;-67
2022/07/31 03:37:05;;;;;;;14.25;7.00;;;;;;;;;;4896401;29;20067;-65
2022/07/31 03:39:35;;;;;;;14.75;6.65;;;;;;;;;;4896259;29;20060;-66
2022/07/31 03:42:10;;;;;;;13.30;6.78;;;;;;;;;;4914305;29;20059;-65
2022/07/31 03:44:48;;;;;;;16.67;6.97;;;;;;;;;;4929664;29;20059;-66
2022/07/31 03:47:18;;;;;;;17.70;7.38;;;;;;;;;;4914779;29;20070;-66
2022/07/31 03:49:49;;;;;;;17.33;6.63;;;;;;;;;;4915149;29;20071;-68
2022/07/31 03:52:20;;;;;;;13.95;6.65;;;;;;;;;;4883966;29;20428;-66
2022/07/31 03:54:51;;;;;;;16.23;7.47;;;;;;;;;;4924083;29;20055;-68
2022/07/31 03:57:23;;;;;;;17.25;7.03;;;;;;;;;;4948018;29;20059;-66
2022/07/31 03:59:58;;;;;;;12.98;6.40;;;;;;;;;;4952881;29;20066;-66
2022/07/31 04:02:31;;;;;;;15.85;7.63;;;;;;;;;;4881537;29;20059;-66
2022/07/31 04:05:09;;;;;;;17.92;7.85;;;;;;;;;;4965165;28;20124;-66
2022/07/31 04:07:40;;;;;;;17.25;7.63;;;;;;;;;;4972055;28;20055;-67
2022/07/31 04:10:12;;;;;;;15.63;7.60;;;;;;;;;;4987746;28;20051;-66
2022/07/31 04:12:42;;;;;;;13.82;6.43;;;;;;;;;;4972284;28;20546;-66
2022/07/31 04:15:13;;;;;;;17.42;7.18;;;;;;;;;;4970798;28;20055;-65
2022/07/31 04:17:43;;;;;;;13.43;6.90;;;;;;;;;;4972107;28;20231;-68
2022/07/31 04:20:18;;;;;;;15.15;6.75;;;;;;;;;;4918275;29;20059;-66
2022/07/31 04:22:49;;;;;;;13.27;7.13;;;;;;;;;;4914103;29;20409;-67
2022/07/31 04:25:49;;;;;;;15.48;6.75;;;;;;;;;;4904942;29;20519;-66
2022/07/31 04:28:26;;;;;;;13.45;6.53;;;;;;;;;;4952506;29;20051;-66
2022/07/31 04:30:57;;;;;;;12.90;6.72;;;;;;;;;;4917177;29;20051;-66
2022/07/31 04:33:27;;;;;;;14.90;6.65;;;;;;;;;;4880615;29;20057;-66
2022/07/31 04:35:57;;;;;;;13.38;6.13;;;;;;;;;;4846097;29;20080;-66
2022/07/31 04:38:28;;;;;;;15.95;7.55;;;;;;;;;;4876668;29;20111;-66
2022/07/31 04:40:59;;;;;;;15.68;7.15;;;;;;;;;;4876359;29;20068;-67
2022/07/31 04:43:30;;;;;;;14.95;6.55;;;;;;;;;;4849965;29;20060;-67
2022/07/31 04:46:00;;;;;;;16.42;7.30;;;;;;;;;;4876607;29;20065;-66
2022/07/31 04:48:45;;;;;;;;;;;;;;;;;;4901075;29;20440;-66
2022/07/31 04:51:23;;;;;;;13.20;6.57;;;;;;;;;;4913831;29;19977;-66
2022/07/31 04:53:54;;;;;;;15.90;6.47;;;;;;;;;;4911986;29;20456;-66
2022/07/31 04:56:34;;;;;;;18.08;7.10;;;;;;;;;;4913425;29;20052;-66
2022/07/31 04:59:08;;;;;;;17.65;7.63;;;;;;;;;;4908571;29;20056;-67
2022/07/31 05:01:43;;;;;;;15.57;7.32;;;;;;;;;;4916354;29;20058;-66
2022/07/31 05:04:17;;;;;;;16.35;7.55;;;;;;;;;;4951843;28;20212;-70
2022/07/31 05:06:50;;;;;;;16.00;6.95;;;;;;;;;;4932410;29;20055;-68
2022/07/31 05:09:22;;;;;;;12.52;6.82;;;;;;;;;;4917149;29;20048;-65
2022/07/31 05:11:58;;;;;;;14.68;6.30;;;;;;;;;;4945436;29;20095;-67
2022/07/31 05:14:30;;;;;;;16.35;7.03;;;;;;;;;;4951409;29;20070;-66
2022/07/31 05:17:00;;;;;;;16.52;6.70;;;;;;;;;;4935533;29;20055;-66
2022/07/31 05:19:48;;;;;;;16.42;6.55;;;;;;;;;;4957035;28;20058;-67
2022/07/31 05:22:44;;;;;;;15.90;6.60;;;;;;;;;;4913418;29;20555;-66
2022/07/31 05:25:37;;;;;;;18.17;7.32;;;;;;;;;;4885686;29;20078;-67
2022/07/31 05:28:08;;;;;;;13.38;6.18;;;;;;;;;;4869654;29;20496;-66
2022/07/31 05:30:40;;;;;;;14.30;6.68;;;;;;;;;;4838788;29;20077;-66
2022/07/31 05:33:10;;;;;;;18.15;7.28;;;;;;;;;;4873256;29;20049;-66
2022/07/31 05:35:44;;;;;;;14.18;6.15;;;;;;;;;;4875609;29;20056;-66
2022/07/31 05:38:15;;;;;;;15.02;6.55;;;;;;;;;;4876193;29;20057;-66
2022/07/31 05:40:54;;;;;;;13.80;7.10;;;;;;;;;;4874061;29;20445;-66
2022/07/31 05:43:57;;;;;;;17.10;6.72;;;;;;;;;;4808632;29;20074;-68
2022/07/31 05:46:43;;;;;;;14.63;6.35;;;;;;;;;;4838056;29;20058;-66
2022/07/31 05:49:18;;;;;;;14.55;6.78;;;;;;;;;;4820453;29;20078;-67
2022/07/31 05:52:01;;;;;;;16.58;7.10;;;;;;;;;;4855887;29;20045;-66
2022/07/31 05:54:47;;;;;;;14.27;6.45;;;;;;;;;;4838259;29;20085;-67
2022/07/31 05:57:49;;;;;;;13.75;6.35;;;;;;;;;;4826754;29;20431;-66
2022/07/31 06:00:33;;;;;;;13.18;6.03;;;;;;;;;;4833607;29;20058;-68
2022/07/31 06:03:04;;;;;;;15.23;5.80;;;;;;;;;;4853002;29;20061;-66
2022/07/31 06:05:53;;;;;;;13.07;5.88;;;;;;;;;;4828783;29;20058;-66
2022/07/31 06:08:25;;;;;;;14.23;6.32;;;;;;;;;;4819971;29;20076;-66
2022/07/31 06:10:58;;;;;;;13.70;6.38;;;;;;;;;;4827517;29;20069;-67
2022/07/31 06:13:29;;;;;;;16.73;7.10;;;;;;;;;;4794457;29;20051;-66
2022/07/31 06:16:13;;;;;;;14.02;6.90;;;;;;;;;;4801770;29;20104;-66
2022/07/31 06:18:44;;;;;;;13.95;5.97;;;;;;;;;;4794693;29;20059;-66
2022/07/31 06:21:14;;;;;;;14.20;6.20;;;;;;;;;;4837721;29;20046;-67
2022/07/31 06:23:42;;;;;;;13.65;6.22;;;;;;;;;;4855802;29;20915;-66
2022/07/31 06:26:28;;;;;;;14.20;6.43;;;;;;;;;;4850416;29;20454;-67
2022/07/31 06:28:58;;;;;;;16.73;6.53;;;;;;;;;;4841993;29;20068;-66
2022/07/31 06:31:29;;;;;;;14.25;5.88;;;;;;;;;;4860141;29;20057;-65
2022/07/31 06:33:59;;;;;;;11.85;5.68;;;;;;;;;;4874084;29;20060;-66
2022/07/31 06:36:38;;;;;;;14.38;6.32;;;;;;;;;;4907713;29;20431;-67
2022/07/31 06:39:12;;;;;;;13.60;5.82;;;;;;;;;;4907883;29;20501;-66
2022/07/31 06:42:03;;;;;;;14.32;5.95;;;;;;;;;;4911665;29;20063;-67
2022/07/31 06:44:34;;;;;;;16.25;6.07;;;;;;;;;;4912454;29;20056;-67
2022/07/31 06:47:31;;;;;;;;;;;;;;;;;;4894572;29;20517;-66
2022/07/31 06:50:31;;;;;;;11.65;4.88;;;;;;;;;;4964788;28;19922;-68
2022/07/31 06:53:17;;;;;;;15.20;5.97;;;;;;;;;;4988894;28;21096;-67
2022/07/31 06:55:48;;;;;;;16.35;5.80;;;;;;;;;;4969039;28;20051;-67
2022/07/31 06:58:17;;;;;;;11.15;5.18;;;;;;;;;;4935608;28;20071;-67
2022/07/31 07:00:48;;;;;;;13.75;5.22;;;;;;;;;;4911835;29;20566;-66
2022/07/31 07:03:19;;;;;;;12.35;5.45;;;;;;;;;;4930868;29;20547;-67
2022/07/31 07:05:49;;;;;;;10.95;5.32;;;;;;;;;;4931138;29;20544;-67
2022/07/31 07:08:20;;;;;;;11.30;5.45;;;;;;;;;;4924805;29;20061;-66
2022/07/31 07:10:50;;;;;;;13.57;5.43;;;;;;;;;;4930772;29;20060;-68
2022/07/31 07:13:31;;;;;;;11.50;5.18;;;;;;;;;;4908201;29;20063;-67
2022/07/31 07:16:17;;;;;;;13.00;5.75;;;;;;;;;;4911818;29;20063;-66
2022/07/31 07:18:48;;;;;;;12.25;5.63;;;;;;;;;;4859897;29;20052;-66
2022/07/31 07:21:17;;;;;;;11.45;5.72;;;;;;;;;;4893107;29;20425;-67
2022/07/31 07:23:48;;;;;;;11.45;5.43;;;;;;;;;;4911384;29;20079;-68
2022/07/31 07:26:37;;;;;;;11.80;5.70;;;;;;;;;;4901421;29;20057;-67
2022/07/31 07:29:09;;;;;;;12.73;5.70;;;;;;;;;;4874338;29;20049;-66
2022/07/31 07:31:39;;;;;;;14.60;6.03;;;;;;;;;;4874359;29;20057;-69
2022/07/31 07:34:09;;;;;;;12.95;5.93;;;;;;;;;;4888848;29;20427;-67
2022/07/31 07:36:40;;;;;;;12.05;4.88;;;;;;;;;;4893297;29;20068;-66
2022/07/31 07:39:17;;;;;;;13.23;5.65;;;;;;;;;;4893161;29;20052;-66
2022/07/31 07:41:47;;;;;;;12.55;5.88;;;;;;;;;;4914622;28;20402;-70
2022/07/31 07:44:18;;;;;;;14.43;5.60;;;;;;;;;;4943532;28;20052;-66
2022/07/31 07:46:49;;;;;;;13.25;5.20;;;;;;;;;;4931088;29;20052;-67
2022/07/31 07:49:20;;;;;;;13.75;6.05;;;;;;;;;;4965815;28;20059;-66
2022/07/31 07:52:16;;;;;;;11.75;5.18;;;;;;;;;;4960140;28;20058;-66
2022/07/31 07:55:18;;;;;;;12.70;4.85;;;;;;;;;;4978655;28;20067;-66
2022/07/31 07:58:07;;;;;;;11.50;5.50;;;;;;;;;;4926491;28;20063;-66
2022/07/31 08:01:02;;;;;;;10.27;5.13;;;;;;;;;;4953839;28;20070;-66
2022/07/31 08:03:33;;;;;;;10.80;4.90;;;;;;;;;;4914760;29;20064;-66
2022/07/31 08:06:22;;;;;;;11.45;4.60;;;;;;;;;;4914655;29;20526;-66
2022/07/31 08:08:52;;;;;;;11.10;5.63;;;;;;;;;;4914698;29;20429;-66
2022/07/31 08:11:48;;;;;;;10.45;5.25;;;;;;;;;;4877498;29;20073;-66
2022/07/31 08:14:36;;;;;;;11.25;4.50;;;;;;;;;;4839891;29;20061;-66
2022/07/31 08:17:26;;;;;;;10.93;5.30;;;;;;;;;;4840098;29;20530;-66
2022/07/31 08:19:58;;;;;;;11.23;5.40;;;;;;;;;;4806336;29;20054;-66
2022/07/31 08:22:29;;;;;;;11.52;5.18;;;;;;;;;;4857872;29;20414;-66
2022/07/31 08:25:12;;;;;;;10.40;5.30;;;;;;;;;;5088560;28;20414;-66
2022/07/31 08:27:47;;;;;;;11.48;4.63;;;;;;;;;;5088661;28;20036;-67
2022/07/31 08:30:17;;;;;;;10.80;4.93;;;;;;;;;;5048745;28;20049;-67
2022/07/31 08:32:48;;;;;;;11.52;5.07;;;;;;;;;;5045803;28;20069;-67
2022/07/31 08:35:32;;;;;;;13.25;5.20;;;;;;;;;;5011390;28;20057;-66
2022/07/31 08:38:03;;;;;;;10.82;5.20;;;;;;;;;;4989907;28;20534;-67
2022/07/31 08:40:40;;;;;;;11.25;5.13;;;;;;;;;;4986248;28;20714;-67
2022/07/31 08:43:13;;;;;;;11.85;5.22;;;;;;;;;;4934683;28;20078;-66
2022/07/31 08:46:06;;;;;;;10.73;4.90;;;;;;;;;;4954006;28;20066;-67
2022/07/31 08:48:43;;;;;;;10.85;4.88;;;;;;;;;;4947430;29;20534;-66
2022/07/31 08:51:15;;;;;;;10.55;5.03;;;;;;;;;;4947721;29;20105;-67
2022/07/31 08:54:25;;;;;;;9.60;4.38;;;;;;;;;;4947566;29;20063;-67
2022/07/31 08:56:58;;;;;;;10.27;4.65;;;;;;;;;;4947094;29;20570;-67
2022/07/31 08:59:29;;;;;;;11.82;4.90;;;;;;;;;;4947836;29;20060;-66
2022/07/31 09:01:59;;;;;;;11.48;4.93;;;;;;;;;;4930824;29;20508;-67
2022/07/31 09:04:34;;;;;;;10.95;4.35;;;;;;;;;;4927993;29;20072;-67
2022/07/31 09:07:09;;;;;;;10.38;4.85;;;;;;;;;;4930890;29;20059;-66
2022/07/31 09:09:43;;;;;;;12.68;4.80;;;;;;;;;;4947084;28;20055;-66
2022/07/31 09:12:32;;;;;;;14.55;4.82;;;;;;;;;;4946833;28;20048;-66
2022/07/31 09:15:18;;;;;;;10.13;4.38;;;;;;;;;;4932752;28;20056;-72
2022/07/31 09:17:49;;;;;;;9.25;4.45;;;;;;;;;;4936256;28;20064;-69
2022/07/31 09:20:25;;;;;;;10.27;4.50;;;;;;;;;;4940934;28;20714;-67
2022/07/31 09:23:05;;;;;;;9.60;4.32;;;;;;;;;;4946559;28;20504;-67
2022/07/31 09:25:49;;;;;;;12.65;5.20;;;;;;;;;;4961361;28;20044;-67
2022/07/31 09:28:20;;;;;;;11.93;5.18;;;;;;;;;;4947055;28;20058;-67
2022/07/31 09:30:55;;;;;;;11.90;4.93;;;;;;;;;;4927649;29;20055;-67
2022/07/31 09:33:45;;;;;;;9.68;4.22;;;;;;;;;;4930784;29;20071;-67
2022/07/31 09:36:41;;;;;;;9.57;4.35;;;;;;;;;;4932013;29;20546;-67
2022/07/31 09:39:51;;;;;;;8.82;3.75;;;;;;;;;;4896426;29;20068;-68
2022/07/31 09:42:51;;;;;;;10.52;3.83;;;;;;;;;;4859459;29;20045;-66
2022/07/31 09:45:27;;;;;;;11.20;5.50;;;;;;;;;;4873235;29;20406;-66
2022/07/31 09:48:11;;;;;;;12.52;4.70;;;;;;;;;;4858826;29;20057;-67
2022/07/31 09:51:07;;;;;;;11.35;4.60;;;;;;;;;;4872538;29;20057;-66
2022/07/31 09:53:46;;;;;;;9.30;4.15;;;;;;;;;;4874940;29;20057;-67
2022/07/31 09:56:37;;;;;;;10.45;5.32;;;;;;;;;;4889673;29;20410;-68
2022/07/31 09:59:07;;;;;;;12.52;5.18;;;;;;;;;;4876771;29;20061;-68
2022/07/31 10:01:40;;;;;;;;;;;;;;;;;;4897845;29;20052;-66
2022/07/31 10:04:11;;;;;;;9.40;4.22;;;;;;;;;;4917127;29;20360;-67
2022/07/31 10:06:42;;;;;;;9.77;4.35;;;;;;;;;;4914673;29;20524;-66
2022/07/31 10:09:14;;;;;;;10.50;4.53;;;;;;;;;;4944108;29;20059;-67
2022/07/31 10:12:03;;;;;;;9.50;4.93;;;;;;;;;;4952775;29;20051;-67
2022/07/31 10:14:40;;;;;;;7.45;3.90;;;;;;;;;;4933224;29;20059;-67
2022/07/31 10:17:13;;;;;;;10.82;5.20;;;;;;;;;;4895254;29;20048;-67
2022/07/31 10:20:04;;;;;;;12.23;5.28;;;;;;;;;;4882070;29;20164;-66
2022/07/31 10:23:09;;;;;;;11.98;4.13;;;;;;;;;;4897177;29;20060;-67
2022/07/31 10:26:10;;;;;;;8.80;4.05;;;;;;;;;;4914137;29;20048;-66
2022/07/31 10:28:41;;;;;;;10.27;3.95;;;;;;;;;;4929409;29;20052;-67
2022/07/31 10:31:12;;;;;;;9.27;3.92;;;;;;;;;;4932822;29;20512;-67
2022/07/31 10:33:46;;;;;;;14.57;4.82;;;;;;;;;;4901705;29;20487;-69
2022/07/31 10:36:43;;;;;;;11.75;4.13;;;;;;;;;;4849364;29;20056;-67
2022/07/31 10:40:08;;;;;;;11.52;5.55;;;;;;;;;;4876423;29;20458;-66
2022/07/31 10:43:14;;;;;;;11.45;4.57;;;;;;;;;;4897615;29;20056;-67
2022/07/31 10:46:28;;;;;;;10.73;4.60;;;;;;;;;;4913676;29;20052;-67
2022/07/31 10:49:47;;;;;;;13.13;4.90;;;;;;;;;;4901526;29;20060;-67
2022/07/31 10:52:37;;;;;;;11.77;4.53;;;;;;;;;;4912172;29;20048;-67
2022/07/31 10:55:17;;;;;;;12.68;5.13;;;;;;;;;;4905902;29;20048;-67
2022/07/31 10:58:11;;;;;;;12.85;6.53;;;;;;;;;;4914271;29;20614;-67
2022/07/31 11:01:04;;;;;;;14.82;5.82;;;;;;;;;;4899622;29;20059;-67
2022/07/31 11:03:45;;;;;;;14.38;6.00;;;;;;;;;;4900808;29;20060;-67
2022/07/31 11:06:20;;;;;;;15.27;6.43;;;;;;;;;;4869847;29;20061;-67
2022/07/31 11:09:24;;;;;;;17.88;7.20;;;;;;;;;;4838689;29;20415;-67
2022/07/31 11:12:27;;;;;;;14.15;5.53;;;;;;;;;;4838818;29;20054;-67
2022/07/31 11:15:36;;;;;;;12.20;5.60;;;;;;;;;;4857117;29;20061;-68
2022/07/31 11:18:25;;;;;;;12.95;6.18;;;;;;;;;;4841225;29;20060;-67
2022/07/31 11:21:09;;;;;;;17.10;6.85;;;;;;;;;;4914547;29;20071;-69
2022/07/31 11:24:00;;;;;;;16.23;6.30;;;;;;;;;;5002421;28;20548;-67
2022/07/31 11:26:36;;;;;;;13.18;7.50;;;;;;;;;;4976625;28;20698;-67
2022/07/31 11:29:10;;;;;;;14.07;6.40;;;;;;;;;;5009895;28;20061;-67
2022/07/31 11:32:16;;;;;;;14.98;6.25;;;;;;;;;;4951068;28;20067;-67
2022/07/31 11:34:56;;;;;;;15.82;7.55;;;;;;;;;;4971338;28;20065;-67
2022/07/31 11:37:30;;;;;;;20.08;6.72;;;;;;;;;;4915975;29;20088;-68
2022/07/31 11:40:20;;;;;;;17.92;7.00;;;;;;;;;;4931907;29;20064;-67
2022/07/31 11:42:57;;;;;;;14.15;7.47;;;;;;;;;;4950712;29;20048;-68
2022/07/31 11:45:53;;;;;;;17.17;6.30;;;;;;;;;;4938415;28;20062;-67
2022/07/31 11:48:25;;;;;;;16.33;8.13;;;;;;;;;;4970025;28;20422;-67
2022/07/31 11:50:56;;;;;;;13.48;6.22;;;;;;;;;;4970106;28;20058;-67
2022/07/31 11:53:26;;;;;;;16.35;6.70;;;;;;;;;;4970083;28;20066;-66
2022/07/31 11:55:59;;;;;;;15.48;7.00;;;;;;;;;;4970173;28;20063;-67
2022/07/31 11:58:30;;;;;;;15.15;5.90;;;;;;;;;;4970033;28;20082;-67
2022/07/31 12:01:02;;;;;;;14.65;8.48;;;;;;;;;;4937670;28;20403;-66
2022/07/31 12:03:37;;;;;;;52.35;21.88;;;;;;;;;;4954285;28;20059;-66
2022/07/31 12:06:09;;;;;;;59.30;24.05;;;;;;;;;;4970306;28;20055;-66
2022/07/31 12:08:40;;;;;;;54.65;24.20;;;;;;;;;;4916703;29;20455;-67
2022/07/31 12:11:11;;;;;;;88.03;37.55;;;;;;;;;;4966349;28;20055;-67
2022/07/31 12:13:46;;;;;;;41.13;18.75;;;;;;;;;;4950500;29;20059;-67
2022/07/31 12:16:17;;;;;;;36.35;19.42;;;;;;;;;;4931255;29;20059;-69
2022/07/31 12:18:53;;;;;;;87.07;34.10;;;;;;;;;;4931484;29;20186;-67
2022/07/31 12:21:32;;;;;;;53.08;25.02;;;;;;;;;;4947106;29;20070;-66
2022/07/31 12:24:09;;;;;;;54.97;25.17;;;;;;;;;;4950348;29;20415;-66
2022/07/31 12:26:48;;;;;;;25.15;12.23;;;;;;;;;;4965681;28;20062;-67
2022/07/31 12:29:28;;;;;;;25.75;12.25;;;;;;;;;;4931348;29;20076;-66
2022/07/31 12:31:59;;;;;;;21.02;10.43;;;;;;;;;;4912591;29;20068;-66
2022/07/31 12:34:39;;;;;;;21.63;10.40;;;;;;;;;;4893232;29;20060;-66
2022/07/31 12:37:13;;;;;;;22.20;11.63;;;;;;;;;;4893392;29;20063;-69
2022/07/31 12:39:50;;;;;;;18.13;11.00;;;;;;;;;;4893597;29;20417;-66
2022/07/31 12:42:37;;;;;;;19.95;11.45;;;;;;;;;;4893374;29;20466;-67
2022/07/31 12:45:10;;;;;;;18.17;8.65;;;;;;;;;;4892795;29;20505;-67
2022/07/31 12:47:53;;;;;;;19.95;10.45;;;;;;;;;;4874461;29;20060;-66
2022/07/31 12:50:26;;;;;;;18.98;9.27;;;;;;;;;;4875021;29;20779;-66
2022/07/31 12:53:01;;;;;;;18.00;9.38;;;;;;;;;;4877989;29;20068;-67
2022/07/31 12:55:33;;;;;;;19.35;8.60;;;;;;;;;;4912255;29;20053;-66
2022/07/31 12:58:04;;;;;;;17.88;8.82;;;;;;;;;;4898507;29;20056;-68
2022/07/31 13:00:34;;;;;;;21.25;11.27;;;;;;;;;;4911677;29;20413;-67
2022/07/31 13:03:08;;;;;;;25.60;14.73;;;;;;;;;;4874074;29;20069;-65
2022/07/31 13:05:39;;;;;;;22.02;10.43;;;;;;;;;;4852290;29;20054;-65
2022/07/31 13:08:09;;;;;;;22.70;11.32;;;;;;;;;;4892790;29;20127;-64
2022/07/31 13:10:40;;;;;;;22.75;10.40;;;;;;;;;;4950491;28;20060;-64
2022/07/31 13:13:11;;;;;;;16.17;7.93;;;;;;;;;;4971676;28;20050;-64
2022/07/31 13:15:41;;;;;;;21.67;11.15;;;;;;;;;;4925190;28;20066;-64
2022/07/31 13:18:12;;;;;;;41.90;15.90;;;;;;;;;;4940799;28;20051;-67
2022/07/31 13:20:42;;;;;;;13.20;6.30;;;;;;;;;;4973306;28;20058;-65
2022/07/31 13:23:12;;;;;;;11.05;4.78;;;;;;;;;;4972612;28;20051;-65
2022/07/31 13:25:42;;;;;;;11.85;6.45;;;;;;;;;;4996143;28;20053;-67
2022/07/31 13:28:12;;;;;;;7.18;2.80;;;;;;;;;;5012062;28;20054;-66
2022/07/31 13:30:43;;;;;;;4.22;2.00;;;;;;;;;;4952920;29;20071;-64
2022/07/31 13:33:13;;;;;;;6.93;3.00;;;;;;;;;;4918419;29;20067;-64
2022/07/31 13:35:43;;;;;;;15.63;7.70;;;;;;;;;;4933986;29;20070;-65
2022/07/31 13:38:14;;;;;;;5.35;3.03;;;;;;;;;;4943719;29;20051;-64
2022/07/31 13:43:33;;;;;;;3.00;1.30;;;;;;;;;;4945117;29;20529;-64
2022/07/31 13:46:03;;;;;;;3.60;1.40;;;;;;;;;;4933528;29;20048;-65
2022/07/31 13:48:33;;;;;;;5.32;2.28;;;;;;;;;;4964169;28;20059;-65
2022/07/31 13:51:04;;;;;;;4.22;1.80;;;;;;;;;;4953152;29;20059;-65
2022/07/31 13:53:35;;;;;;;5.10;2.58;;;;;;;;;;4914534;29;20048;-65
2022/07/31 13:56:06;;;;;;;9.85;3.65;;;;;;;;;;4914709;29;20056;-65
2022/07/31 13:58:36;;;;;;;11.38;5.80;;;;;;;;;;4914766;29;20056;-66
2022/07/31 14:01:07;;;;;;;33.60;17.08;;;;;;;;;;4895671;29;20056;-65
2022/07/31 14:03:37;;;;;;;5.15;2.53;;;;;;;;;;4880315;29;20061;-65
2022/07/31 14:06:08;;;;;;;6.93;2.60;;;;;;;;;;4914434;29;20059;-64
2022/07/31 14:08:38;;;;;;;3.60;2.03;;;;;;;;;;4902764;29;20059;-64
2022/07/31 14:11:18;;;;;;;5.90;2.78;;;;;;;;;;4895757;29;20052;-66
2022/07/31 14:13:49;;;;;;;5.75;2.60;;;;;;;;;;4882747;29;20072;-68
2022/07/31 14:16:19;;;;;;;7.30;3.30;;;;;;;;;;4876803;29;20120;-65
2022/07/31 14:18:50;;;;;;;14.50;8.82;;;;;;;;;;4908084;29;20408;-64
2022/07/31 14:21:20;;;;;;;4.53;2.72;;;;;;;;;;4903703;29;20049;-64
2022/07/31 14:23:50;;;;;;;5.25;2.30;;;;;;;;;;4884833;29;20076;-65
2022/07/31 14:26:21;;;;;;;6.47;3.70;;;;;;;;;;4856176;29;20396;-65
2022/07/31 14:28:51;;;;;;;6.00;2.58;;;;;;;;;;4849997;29;20065;-65
2022/07/31 14:31:21;;;;;;;9.95;5.35;;;;;;;;;;4905346;29;20063;-63
2022/07/31 14:33:51;;;;;;;9.27;4.95;;;;;;;;;;4914227;29;21173;-64
2022/07/31 14:36:22;;;;;;;12.82;7.45;;;;;;;;;;4933070;29;20415;-64
2022/07/31 14:38:52;;;;;;;6.70;3.10;;;;;;;;;;4932658;29;20052;-64
2022/07/31 14:41:22;;;;;;;5.07;2.53;;;;;;;;;;4932971;29;20052;-65
2022/07/31 14:43:52;;;;;;;6.28;2.33;;;;;;;;;;4911419;29;20070;-64
2022/07/31 14:46:23;;;;;;;5.25;2.33;;;;;;;;;;4932429;29;20047;-64
2022/07/31 14:48:53;;;;;;;5.38;2.63;;;;;;;;;;4913308;29;20052;-64
2022/07/31 14:51:23;;;;;;;6.05;2.47;;;;;;;;;;4878997;29;20057;-65
2022/07/31 14:53:54;;;;;;;6.28;2.95;;;;;;;;;;4878004;29;20217;-67
2022/07/31 14:56:24;;;;;;;5.78;2.65;;;;;;;;;;4849352;29;20053;-64
2022/07/31 14:59:14;;;;;;;7.35;2.83;;;;;;;;;;4872281;29;20084;-63
2022/07/31 15:01:44;;;;;;;7.25;2.70;;;;;;;;;;4857266;29;20084;-63
2022/07/31 15:04:15;;;;;;;6.50;3.35;;;;;;;;;;4857352;29;20061;-63
2022/07/31 15:06:45;;;;;;;7.85;2.78;;;;;;;;;;4857032;29;20068;-63
2022/07/31 15:09:35;;;;;;;7.30;3.67;;;;;;;;;;4844220;29;20053;-63
2022/07/31 15:12:06;;;;;;;6.25;2.45;;;;;;;;;;4856958;29;20060;-63
2022/07/31 15:14:36;;;;;;;6.53;3.05;;;;;;;;;;4842911;29;20062;-66
2022/07/31 15:17:07;;;;;;;7.00;2.10;;;;;;;;;;4844888;29;20054;-63
2022/07/31 15:19:37;;;;;;;6.72;2.92;;;;;;;;;;4838664;29;20057;-63
2022/07/31 15:22:08;;;;;;;7.50;3.45;;;;;;;;;;4838592;29;20062;-64
2022/07/31 15:24:48;;;;;;;8.02;2.13;;;;;;;;;;4851852;29;20151;-67
2022/07/31 15:27:23;;;;;;;6.22;2.47;;;;;;;;;;4890359;29;20498;-64
2022/07/31 15:29:54;;;;;;;9.90;4.25;;;;;;;;;;4850882;29;20060;-64
2022/07/31 15:32:37;;;;;;;5.18;2.38;;;;;;;;;;4893779;29;20175;-64